Terminal Aerodrome Forecast
Issued by NWS Green Bay, WI

Home | Current Version | Previous Version | Text Only | Print | Product List | Glossary Off
Versions: 1 2 3 4 5 6 7 8 9 10 11 12

000
FTUS43 KGRB 161723
TAFGRB
TAF
KGRB 161723Z 1618/1718 23010G15KT P6SM SKC
     FM162200 22006KT P6SM SKC
     FM170600 22007KT P6SM SKC WS017/24035KT
     FM171200 24008KT P6SM SKC=

USA.gov is the U.S. government's official web portal to all federal, state and local government web resources and services.